createdAt,value
2017-09-07T00:01:01.931Z,0
2017-09-07T00:02:11.198Z,0
2017-09-07T00:03:20.155Z,0
2017-09-07T00:04:29.437Z,0
2017-09-07T00:05:38.084Z,0
2017-09-07T00:06:47.104Z,0
2017-09-07T00:07:56.393Z,0
2017-09-07T00:09:05.365Z,0
2017-09-07T00:10:14.649Z,0
2017-09-07T00:11:23.914Z,0
2017-09-07T00:12:32.876Z,0
2017-09-07T00:13:42.175Z,0
2017-09-07T00:14:51.153Z,0
2017-09-07T00:16:00.444Z,0
2017-09-07T00:17:09.108Z,0
2017-09-07T00:18:18.089Z,0
2017-09-07T00:19:27.041Z,0
2017-09-07T00:20:35.993Z,0
2017-09-07T00:21:44.960Z,0
2017-09-07T00:22:54.238Z,0
2017-09-07T00:24:03.191Z,0
2017-09-07T00:25:12.466Z,0
2017-09-07T00:26:21.730Z,0
2017-09-07T00:27:30.689Z,0
2017-09-07T00:28:39.652Z,0
2017-09-07T00:29:48.298Z,0
2017-09-07T00:30:57.286Z,0
2017-09-07T00:32:06.248Z,0
2017-09-07T00:33:15.528Z,0
2017-09-07T00:34:24.499Z,0
2017-09-07T00:35:34.095Z,0
2017-09-07T00:36:43.702Z,0
2017-09-07T00:37:52.345Z,0
2017-09-07T00:39:01.631Z,0
2017-09-07T00:40:10.279Z,0
2017-09-07T00:41:19.549Z,0
2017-09-07T00:42:28.818Z,0
2017-09-07T00:43:37.464Z,0
2017-09-07T00:44:46.113Z,0
2017-09-07T00:45:55.074Z,0
2017-09-07T00:47:03.718Z,0
2017-09-07T00:48:12.682Z,0
2017-09-07T00:49:21.948Z,0
2017-09-07T00:50:30.910Z,0
2017-09-07T00:51:39.558Z,0
2017-09-07T00:52:48.843Z,0
2017-09-07T00:53:57.489Z,0
2017-09-07T00:55:06.456Z,0
2017-09-07T00:56:15.097Z,0
2017-09-07T00:57:23.741Z,0
2017-09-07T00:58:32.694Z,0
2017-09-07T00:59:41.338Z,0
2017-09-07T01:00:50.291Z,0
2017-09-07T01:01:59.554Z,0
2017-09-07T01:03:08.214Z,0
2017-09-07T01:04:17.194Z,0
2017-09-07T01:05:26.481Z,0
2017-09-07T01:06:35.783Z,0
2017-09-07T01:07:44.734Z,0
2017-09-07T01:08:53.388Z,0
2017-09-07T01:10:02.027Z,0
2017-09-07T01:11:11.313Z,0
2017-09-07T01:12:20.591Z,0
2017-09-07T01:13:29.874Z,0
2017-09-07T01:14:39.159Z,0
2017-09-07T01:15:49.060Z,0
2017-09-07T01:16:58.660Z,0
2017-09-07T01:18:07.623Z,0
2017-09-07T01:19:16.583Z,0
2017-09-07T01:20:25.571Z,0
2017-09-07T01:21:34.850Z,0
2017-09-07T01:22:43.816Z,0
2017-09-07T01:23:52.789Z,0
2017-09-07T01:25:02.069Z,0
2017-09-07T01:26:11.353Z,0
2017-09-07T01:27:20.325Z,0
2017-09-07T01:28:29.913Z,0
2017-09-07T01:29:38.898Z,0
2017-09-07T01:30:48.167Z,0
2017-09-07T01:31:57.755Z,0
2017-09-07T01:33:06.403Z,0
2017-09-07T01:34:15.064Z,0
2017-09-07T01:35:24.032Z,0
2017-09-07T01:36:33.327Z,0
2017-09-07T01:37:42.593Z,0
2017-09-07T01:38:51.557Z,0
2017-09-07T01:40:00.849Z,0
2017-09-07T01:41:09.814Z,0
2017-09-07T01:42:18.452Z,0
2017-09-07T01:43:27.424Z,0
2017-09-07T01:44:36.848Z,0
2017-09-07T01:45:46.120Z,0
2017-09-07T01:46:54.760Z,0
2017-09-07T01:48:04.393Z,0
2017-09-07T01:49:13.355Z,0
2017-09-07T01:50:22.633Z,0
2017-09-07T01:51:31.908Z,0
2017-09-07T01:52:41.504Z,0
2017-09-07T01:53:50.144Z,0
2017-09-07T01:54:59.114Z,0
2017-09-07T01:56:08.383Z,0
2017-09-07T01:57:17.666Z,0
2017-09-07T01:58:26.945Z,0
2017-09-07T01:59:36.230Z,0
2017-09-07T02:00:45.194Z,0
2017-09-07T02:01:54.813Z,0
2017-09-07T02:03:03.768Z,0
2017-09-07T02:04:13.366Z,0
2017-09-07T02:05:22.647Z,0
2017-09-07T02:06:31.288Z,0
2017-09-07T02:07:40.569Z,0
2017-09-07T02:08:49.202Z,0
2017-09-07T02:09:57.859Z,0
2017-09-07T02:11:06.824Z,0
2017-09-07T02:12:15.793Z,0
2017-09-07T02:13:25.378Z,0
2017-09-07T02:14:34.335Z,0
2017-09-07T02:15:42.983Z,0
2017-09-07T02:16:52.316Z,0
2017-09-07T02:18:01.911Z,0
2017-09-07T02:19:10.558Z,0
2017-09-07T02:20:19.512Z,0
2017-09-07T02:21:28.471Z,0
2017-09-07T02:22:37.420Z,0
2017-09-07T02:23:46.379Z,0
2017-09-07T02:24:55.362Z,0
2017-09-07T02:26:04.644Z,0
2017-09-07T02:27:13.918Z,0
2017-09-07T02:28:22.560Z,0
2017-09-07T02:29:31.831Z,0
2017-09-07T02:30:40.819Z,0
2017-09-07T02:31:49.809Z,0
2017-09-07T02:32:58.445Z,0
2017-09-07T02:34:07.402Z,0
2017-09-07T02:35:16.993Z,0
2017-09-07T02:36:26.300Z,0
2017-09-07T02:37:34.954Z,0
2017-09-07T02:38:44.234Z,0
2017-09-07T02:39:52.885Z,0
2017-09-07T02:41:01.842Z,0
2017-09-07T02:42:10.508Z,0
2017-09-07T02:43:20.097Z,0
2017-09-07T02:44:29.364Z,0
2017-09-07T02:45:38.638Z,0
2017-09-07T02:46:47.932Z,0
2017-09-07T02:47:56.889Z,0
2017-09-07T02:49:06.153Z,0
2017-09-07T02:50:14.800Z,0
2017-09-07T02:51:23.757Z,0
2017-09-07T02:52:32.723Z,0
2017-09-07T02:53:41.693Z,0
2017-09-07T02:54:51.609Z,0
2017-09-07T02:56:00.262Z,0
2017-09-07T02:57:08.911Z,0
2017-09-07T02:58:18.499Z,0
2017-09-07T02:59:27.787Z,0
2017-09-07T03:00:37.072Z,0
2017-09-07T03:01:46.662Z,0
2017-09-07T03:02:55.310Z,0
2017-09-07T03:04:03.962Z,0
2017-09-07T03:05:12.979Z,0
2017-09-07T03:06:21.940Z,0
2017-09-07T03:07:30.590Z,0
2017-09-07T03:08:40.184Z,0
2017-09-07T03:09:49.159Z,0
2017-09-07T03:10:57.811Z,0
2017-09-07T03:12:07.080Z,0
2017-09-07T03:13:16.356Z,0
2017-09-07T03:14:25.634Z,0
2017-09-07T03:15:35.288Z,0
2017-09-07T03:16:44.263Z,0
2017-09-07T03:17:53.857Z,0
2017-09-07T03:19:02.821Z,0
2017-09-07T03:20:11.468Z,0
2017-09-07T03:21:20.115Z,0
2017-09-07T03:22:29.443Z,0
2017-09-07T03:23:38.107Z,0
2017-09-07T03:24:47.394Z,0
2017-09-07T03:25:56.665Z,0
2017-09-07T03:27:05.367Z,0
2017-09-07T03:28:14.007Z,0
2017-09-07T03:29:22.663Z,0
2017-09-07T03:30:31.955Z,0
2017-09-07T03:31:41.219Z,0
2017-09-07T03:32:50.175Z,0
2017-09-07T03:33:59.452Z,0
2017-09-07T03:35:08.106Z,0
2017-09-07T03:36:17.074Z,0
2017-09-07T03:37:26.030Z,0
2017-09-07T03:38:35.295Z,0
2017-09-07T03:39:44.267Z,0
2017-09-07T03:40:53.222Z,0
2017-09-07T03:42:01.870Z,0
2017-09-07T03:43:10.572Z,0
2017-09-07T03:44:19.851Z,0
2017-09-07T03:45:29.132Z,0
2017-09-07T03:46:38.092Z,0
2017-09-07T03:47:47.372Z,0
2017-09-07T03:48:56.959Z,0
2017-09-07T03:50:05.615Z,0
2017-09-07T03:51:15.843Z,0
2017-09-07T03:52:24.483Z,0
2017-09-07T03:53:33.136Z,0
2017-09-07T03:54:42.408Z,0
2017-09-07T03:55:51.052Z,0
2017-09-07T03:57:00.326Z,0
2017-09-07T03:58:09.286Z,0
2017-09-07T03:59:18.573Z,0
2017-09-07T04:00:27.541Z,0
2017-09-07T04:01:36.807Z,0
2017-09-07T04:02:46.387Z,0
2017-09-07T04:03:55.666Z,0
2017-09-07T04:05:04.626Z,0
2017-09-07T04:06:13.267Z,0
2017-09-07T04:07:22.233Z,0
2017-09-07T04:08:31.188Z,0
2017-09-07T04:09:40.142Z,0
2017-09-07T04:10:49.726Z,0
2017-09-07T04:11:58.680Z,0
2017-09-07T04:13:07.964Z,0
2017-09-07T04:14:17.553Z,0
2017-09-07T04:15:27.159Z,0
2017-09-07T04:16:35.801Z,0
2017-09-07T04:17:44.445Z,0
2017-09-07T04:18:53.091Z,0
2017-09-07T04:20:02.359Z,0
2017-09-07T04:21:11.641Z,0
2017-09-07T04:22:20.912Z,0
2017-09-07T04:23:29.553Z,0
2017-09-07T04:24:38.508Z,0
2017-09-07T04:25:47.491Z,0
2017-09-07T04:26:56.128Z,0
2017-09-07T04:28:05.082Z,0
2017-09-07T04:29:14.042Z,0
2017-09-07T04:30:22.687Z,0
2017-09-07T04:31:31.319Z,0
2017-09-07T04:32:39.970Z,0
2017-09-07T04:33:49.254Z,0
2017-09-07T04:34:58.211Z,0
2017-09-07T04:36:07.474Z,0
2017-09-07T04:37:16.748Z,0
2017-09-07T04:38:25.393Z,4
2017-09-07T04:39:34.346Z,4
2017-09-07T04:40:43.930Z,0
2017-09-07T04:41:52.891Z,4
2017-09-07T04:43:01.529Z,8
2017-09-07T04:44:10.803Z,4
2017-09-07T04:45:20.081Z,4
2017-09-07T04:46:29.665Z,4
2017-09-07T04:47:38.312Z,8
2017-09-07T04:48:47.577Z,8
2017-09-07T04:49:56.851Z,12
2017-09-07T04:51:06.435Z,12
2017-09-07T04:52:15.424Z,12
2017-09-07T04:53:24.980Z,16
2017-09-07T04:54:33.969Z,16
2017-09-07T04:55:43.888Z,20
2017-09-07T04:56:52.849Z,20
2017-09-07T04:58:01.818Z,28
2017-09-07T04:59:11.105Z,32
2017-09-07T05:00:19.741Z,36
2017-09-07T05:01:29.327Z,44
2017-09-07T05:02:38.613Z,48
2017-09-07T05:03:47.893Z,52
2017-09-07T05:04:56.854Z,56
2017-09-07T05:06:05.815Z,64
2017-09-07T05:07:14.471Z,68
2017-09-07T05:08:24.064Z,80
2017-09-07T05:09:33.649Z,88
2017-09-07T05:10:42.300Z,100
2017-09-07T05:11:51.575Z,108
2017-09-07T05:13:00.536Z,116
2017-09-07T05:14:09.497Z,132
2017-09-07T05:15:19.091Z,136
2017-09-07T05:16:28.365Z,144
2017-09-07T05:17:37.012Z,152
2017-09-07T05:18:45.667Z,164
2017-09-07T05:19:55.265Z,176
2017-09-07T05:21:04.219Z,184
2017-09-07T05:22:13.193Z,196
2017-09-07T05:23:22.154Z,200
2017-09-07T05:24:31.114Z,208
2017-09-07T05:25:40.071Z,212
2017-09-07T05:26:49.345Z,208
2017-09-07T05:27:58.931Z,216
2017-09-07T05:29:08.219Z,212
2017-09-07T05:30:17.179Z,208
2017-09-07T05:31:25.818Z,208
2017-09-07T05:32:34.468Z,216
2017-09-07T05:33:43.427Z,236
2017-09-07T05:34:52.702Z,256
2017-09-07T05:36:02.301Z,272
2017-09-07T05:37:10.950Z,304
2017-09-07T05:38:20.224Z,332
2017-09-07T05:39:29.494Z,352
2017-09-07T05:40:38.465Z,356
2017-09-07T05:41:47.436Z,352
2017-09-07T05:42:57.030Z,344
2017-09-07T05:44:06.626Z,344
2017-09-07T05:45:15.916Z,364
2017-09-07T05:46:25.194Z,388
2017-09-07T05:47:34.487Z,420
2017-09-07T05:48:43.772Z,444
2017-09-07T05:49:52.739Z,460
2017-09-07T05:51:01.377Z,476
2017-09-07T05:52:10.029Z,484
2017-09-07T05:53:19.305Z,492
2017-09-07T05:54:28.271Z,500
2017-09-07T05:55:37.233Z,524
2017-09-07T05:56:46.207Z,564
2017-09-07T05:57:55.168Z,600
2017-09-07T05:59:04.156Z,640
2017-09-07T06:00:12.803Z,684
2017-09-07T06:01:22.452Z,764
2017-09-07T06:02:32.041Z,844
2017-09-07T06:03:41.338Z,908
2017-09-07T06:04:49.992Z,924
2017-09-07T06:05:58.659Z,936
2017-09-07T06:07:07.960Z,976
2017-09-07T06:08:17.240Z,1052
2017-09-07T06:09:25.889Z,1128
2017-09-07T06:10:34.849Z,1176
2017-09-07T06:11:44.443Z,1144
2017-09-07T06:12:53.723Z,1132
2017-09-07T06:14:02.702Z,1144
2017-09-07T06:15:11.379Z,1184
2017-09-07T06:16:20.679Z,1196
2017-09-07T06:17:29.647Z,1208
2017-09-07T06:18:38.602Z,1184
2017-09-07T06:19:47.577Z,1144
2017-09-07T06:20:57.162Z,1080
2017-09-07T06:22:06.138Z,1028
2017-09-07T06:23:15.098Z,928
2017-09-07T06:24:24.069Z,816
2017-09-07T06:25:33.669Z,792
2017-09-07T06:26:42.654Z,748
2017-09-07T06:27:52.023Z,724
2017-09-07T06:29:01.005Z,752
2017-09-07T06:30:09.678Z,812
2017-09-07T06:31:18.959Z,872
2017-09-07T06:32:27.918Z,896
2017-09-07T06:33:37.181Z,928
2017-09-07T06:34:46.776Z,904
2017-09-07T06:35:55.443Z,848
2017-09-07T06:37:04.745Z,852
2017-09-07T06:38:13.393Z,928
2017-09-07T06:39:22.380Z,984
2017-09-07T06:40:31.354Z,980
2017-09-07T06:41:40.330Z,956
2017-09-07T06:42:50.247Z,964
2017-09-07T06:43:59.842Z,980
2017-09-07T06:45:09.122Z,984
2017-09-07T06:46:18.398Z,1040
2017-09-07T06:47:27.082Z,1076
2017-09-07T06:48:35.704Z,1060
2017-09-07T06:49:44.679Z,956
2017-09-07T06:50:54.596Z,896
2017-09-07T06:52:04.499Z,848
2017-09-07T06:53:13.149Z,816
2017-09-07T06:54:22.438Z,808
2017-09-07T06:55:31.461Z,808
2017-09-07T06:56:40.432Z,796
2017-09-07T06:57:50.039Z,780
2017-09-07T06:58:58.996Z,752
2017-09-07T07:00:08.299Z,732
2017-09-07T07:01:18.210Z,700
2017-09-07T07:02:27.491Z,688
2017-09-07T07:03:36.776Z,672
2017-09-07T07:04:45.442Z,676
2017-09-07T07:05:54.782Z,652
2017-09-07T07:07:04.082Z,628
2017-09-07T07:08:13.091Z,608
2017-09-07T07:09:21.741Z,596
2017-09-07T07:10:30.718Z,612
2017-09-07T07:11:39.686Z,632
2017-09-07T07:12:49.327Z,656
2017-09-07T07:13:58.345Z,700
2017-09-07T07:15:07.072Z,740
2017-09-07T07:16:16.366Z,776
2017-09-07T07:17:25.973Z,796
2017-09-07T07:18:34.623Z,820
2017-09-07T07:19:43.281Z,812
2017-09-07T07:20:52.614Z,760
2017-09-07T07:22:01.341Z,700
2017-09-07T07:23:10.105Z,708
2017-09-07T07:24:18.795Z,732
2017-09-07T07:25:28.097Z,640
2017-09-07T07:26:37.072Z,600
2017-09-07T07:27:46.399Z,612
2017-09-07T07:28:55.379Z,536
2017-09-07T07:30:04.358Z,480
2017-09-07T07:31:13.351Z,512
2017-09-07T07:32:22.334Z,600
2017-09-07T07:33:30.992Z,648
2017-09-07T07:34:39.981Z,692
2017-09-07T07:35:49.630Z,776
2017-09-07T07:36:58.600Z,828
2017-09-07T07:38:07.574Z,848
2017-09-07T07:39:16.543Z,824
2017-09-07T07:40:25.538Z,792
2017-09-07T07:41:35.156Z,764
2017-09-07T07:42:44.766Z,784
2017-09-07T07:43:53.425Z,828
2017-09-07T07:45:02.395Z,864
2017-09-07T07:46:11.364Z,912
2017-09-07T07:47:20.331Z,948
2017-09-07T07:48:29.292Z,992
2017-09-07T07:49:38.571Z,1064
2017-09-07T07:50:47.225Z,1080
2017-09-07T07:51:56.194Z,1104
2017-09-07T07:53:04.861Z,1260
2017-09-07T07:54:13.825Z,1396
2017-09-07T07:55:23.125Z,1540
2017-09-07T07:56:32.417Z,1724
2017-09-07T07:57:41.387Z,1816
2017-09-07T07:58:50.359Z,1808
2017-09-07T07:59:59.327Z,1948
2017-09-07T08:01:08.298Z,1980
2017-09-07T08:02:17.264Z,1984
2017-09-07T08:03:26.229Z,1880
2017-09-07T08:04:35.577Z,1732
2017-09-07T08:05:44.236Z,1624
2017-09-07T08:06:53.557Z,1596
2017-09-07T08:08:02.533Z,1664
2017-09-07T08:09:12.142Z,1760
2017-09-07T08:10:21.124Z,1780
2017-09-07T08:11:29.810Z,1636
2017-09-07T08:12:38.775Z,1468
2017-09-07T08:13:48.080Z,1396
2017-09-07T08:14:56.741Z,1348
2017-09-07T08:16:06.035Z,1280
2017-09-07T08:17:15.040Z,1176
2017-09-07T08:18:24.638Z,1132
2017-09-07T08:19:33.600Z,1232
2017-09-07T08:20:42.883Z,1356
2017-09-07T08:21:51.854Z,1512
2017-09-07T08:23:01.145Z,1460
2017-09-07T08:24:10.137Z,1288
2017-09-07T08:25:19.417Z,1036
2017-09-07T08:26:28.394Z,896
2017-09-07T08:27:37.045Z,864
2017-09-07T08:28:45.705Z,988
2017-09-07T08:29:54.987Z,1000
2017-09-07T08:31:03.631Z,1052
2017-09-07T08:32:12.599Z,1120
2017-09-07T08:33:21.652Z,1040
2017-09-07T08:34:30.939Z,992
2017-09-07T08:35:39.617Z,992
2017-09-07T08:36:48.597Z,1104
2017-09-07T08:37:58.205Z,1228
2017-09-07T08:39:07.178Z,1452
2017-09-07T08:40:16.777Z,1604
2017-09-07T08:41:25.442Z,1432
2017-09-07T08:42:34.151Z,1248
2017-09-07T08:43:43.118Z,1064
2017-09-07T08:44:52.401Z,932
2017-09-07T08:46:01.693Z,884
2017-09-07T08:47:10.671Z,924
2017-09-07T08:48:19.965Z,976
2017-09-07T08:49:28.612Z,972
2017-09-07T08:50:37.900Z,916
2017-09-07T08:51:47.185Z,848
2017-09-07T08:52:56.467Z,808
2017-09-07T08:54:05.752Z,832
2017-09-07T08:55:15.021Z,900
2017-09-07T08:56:23.698Z,980
2017-09-07T08:57:32.629Z,1064
2017-09-07T08:58:41.594Z,1148
2017-09-07T08:59:50.247Z,1212
2017-09-07T09:00:59.518Z,1256
2017-09-07T09:02:08.174Z,1216
2017-09-07T09:03:17.448Z,1168
2017-09-07T09:04:26.423Z,1160
2017-09-07T09:05:35.734Z,1224
2017-09-07T09:06:45.004Z,1368
2017-09-07T09:07:54.284Z,1632
2017-09-07T09:09:04.516Z,1864
2017-09-07T09:10:13.187Z,2092
2017-09-07T09:11:22.461Z,2284
2017-09-07T09:12:31.442Z,2340
2017-09-07T09:13:40.116Z,2492
2017-09-07T09:14:49.719Z,2680
2017-09-07T09:15:58.676Z,2844
2017-09-07T09:17:07.653Z,2916
2017-09-07T09:18:16.618Z,2984
2017-09-07T09:19:25.292Z,2832
2017-09-07T09:20:33.942Z,2544
2017-09-07T09:21:43.567Z,2404
2017-09-07T09:22:53.489Z,2372
2017-09-07T09:24:02.173Z,2216
2017-09-07T09:25:12.153Z,2160
2017-09-07T09:26:20.824Z,2356
2017-09-07T09:27:29.789Z,2560
2017-09-07T09:28:38.441Z,2596
2017-09-07T09:29:47.721Z,2664
2017-09-07T09:30:56.999Z,2528
2017-09-07T09:32:05.654Z,2416
2017-09-07T09:33:14.948Z,2472
2017-09-07T09:34:23.600Z,2448
2017-09-07T09:35:32.258Z,2320
2017-09-07T09:36:41.238Z,2132
2017-09-07T09:37:50.524Z,2048
2017-09-07T09:38:59.509Z,2172
2017-09-07T09:40:09.145Z,2492
2017-09-07T09:41:18.148Z,2548
2017-09-07T09:42:27.449Z,2380
2017-09-07T09:43:36.428Z,2152
2017-09-07T09:44:45.395Z,2044
2017-09-07T09:45:54.993Z,2000
2017-09-07T09:47:04.276Z,1896
2017-09-07T09:48:13.271Z,1784
2017-09-07T09:49:22.627Z,1680
2017-09-07T09:50:31.300Z,1600
2017-09-07T09:51:40.893Z,1536
2017-09-07T09:52:49.866Z,1524
2017-09-07T09:53:59.476Z,1580
2017-09-07T09:55:08.461Z,1656
2017-09-07T09:56:17.741Z,1640
2017-09-07T09:57:27.024Z,1652
2017-09-07T09:58:35.697Z,1852
2017-09-07T09:59:44.671Z,2192
2017-09-07T10:00:53.642Z,2528
2017-09-07T10:02:02.619Z,2800
2017-09-07T10:03:11.906Z,3072
2017-09-07T10:04:20.888Z,3200
2017-09-07T10:05:30.498Z,3168
2017-09-07T10:06:39.789Z,2984
2017-09-07T10:07:49.296Z,2860
2017-09-07T10:08:58.267Z,2768
2017-09-07T10:10:07.871Z,2556
2017-09-07T10:11:16.833Z,2524
2017-09-07T10:12:25.803Z,2496
2017-09-07T10:13:34.448Z,2480
2017-09-07T10:14:43.440Z,2460
2017-09-07T10:15:52.131Z,2580
2017-09-07T10:17:01.413Z,2828
2017-09-07T10:18:36.715Z,3076
2017-09-07T10:19:46.299Z,3328
2017-09-07T10:20:55.898Z,3492
2017-09-07T10:22:05.559Z,3516
2017-09-07T10:23:14.521Z,3348
2017-09-07T10:24:23.809Z,3264
2017-09-07T10:25:32.464Z,3072
2017-09-07T10:26:41.455Z,2920
2017-09-07T10:27:50.424Z,2940
2017-09-07T10:28:59.387Z,3264
2017-09-07T10:30:08.672Z,3140
2017-09-07T10:31:17.977Z,3132
2017-09-07T10:32:26.940Z,2992
2017-09-07T10:33:35.913Z,2892
2017-09-07T10:34:45.202Z,3264
2017-09-07T10:35:54.484Z,3428
2017-09-07T10:37:03.137Z,3324
2017-09-07T10:38:12.411Z,3100
2017-09-07T10:39:21.729Z,3112
2017-09-07T10:40:31.010Z,2800
2017-09-07T10:41:40.313Z,2384
2017-09-07T10:42:49.281Z,2556
2017-09-07T10:43:58.583Z,2936
2017-09-07T10:45:08.515Z,2968
2017-09-07T10:46:17.805Z,2668
2017-09-07T10:47:27.412Z,2572
2017-09-07T10:48:36.379Z,2420
2017-09-07T10:49:45.730Z,2340
2017-09-07T10:50:54.401Z,2340
2017-09-07T10:52:03.995Z,2356
2017-09-07T10:53:12.966Z,2488
2017-09-07T10:54:22.571Z,2280
2017-09-07T10:55:31.860Z,2080
2017-09-07T10:56:41.156Z,2100
2017-09-07T10:57:50.139Z,2432
2017-09-07T10:58:59.427Z,2548
2017-09-07T11:00:08.112Z,2524
2017-09-07T11:01:17.763Z,2456
2017-09-07T11:02:27.055Z,2512
2017-09-07T11:03:36.664Z,2760
2017-09-07T11:04:45.635Z,2852
2017-09-07T11:05:55.235Z,3124
2017-09-07T11:07:04.838Z,3140
2017-09-07T11:08:13.514Z,3036
2017-09-07T11:09:22.816Z,2732
2017-09-07T11:10:32.110Z,2548
2017-09-07T11:11:41.084Z,2308
2017-09-07T11:12:50.049Z,2072
2017-09-07T11:13:58.706Z,1696
2017-09-07T11:15:07.666Z,1688
2017-09-07T11:16:16.634Z,2088
2017-09-07T11:17:25.591Z,2452
2017-09-07T11:18:34.591Z,2428
2017-09-07T11:19:43.874Z,2344
2017-09-07T11:20:53.179Z,2260
2017-09-07T11:22:02.463Z,2132
2017-09-07T11:23:12.074Z,2136
2017-09-07T11:24:21.365Z,1868
2017-09-07T11:25:31.286Z,1456
2017-09-07T11:26:40.568Z,1232
2017-09-07T11:27:49.853Z,1052
2017-09-07T11:28:58.828Z,1200
2017-09-07T11:30:08.108Z,2040
2017-09-07T11:31:16.762Z,2532
2017-09-07T11:32:26.363Z,2372
2017-09-07T11:33:35.653Z,2144
2017-09-07T11:34:44.309Z,2088
2017-09-07T11:35:53.594Z,2108
2017-09-07T11:37:02.563Z,2128
2017-09-07T11:38:11.223Z,2504
2017-09-07T11:39:20.830Z,2876
2017-09-07T11:40:29.814Z,2816
2017-09-07T11:41:38.470Z,2580
2017-09-07T11:42:47.452Z,2488
2017-09-07T11:43:57.386Z,2520
2017-09-07T11:45:06.992Z,2440
2017-09-07T11:46:15.654Z,2380
2017-09-07T11:47:25.238Z,2080
2017-09-07T11:48:34.836Z,1916
2017-09-07T11:49:43.820Z,1932
2017-09-07T11:50:52.496Z,1916
2017-09-07T11:52:01.507Z,1896
2017-09-07T11:53:10.789Z,1924
2017-09-07T11:54:19.438Z,1816
2017-09-07T11:55:28.091Z,1856
2017-09-07T11:56:37.696Z,2144
2017-09-07T11:57:46.970Z,2484
2017-09-07T11:58:56.249Z,2820
2017-09-07T12:00:05.526Z,3052
2017-09-07T12:01:14.814Z,3204
2017-09-07T12:02:24.082Z,3232
2017-09-07T12:03:34.007Z,3156
2017-09-07T12:04:42.671Z,2960
2017-09-07T12:05:52.285Z,2760
2017-09-07T12:07:01.260Z,2700
2017-09-07T12:08:10.230Z,2612
2017-09-07T12:09:19.517Z,2404
2017-09-07T12:10:28.490Z,2276
2017-09-07T12:11:37.140Z,2240
2017-09-07T12:12:45.797Z,2200
2017-09-07T12:13:55.402Z,2164
2017-09-07T12:15:04.685Z,2024
2017-09-07T12:16:13.650Z,1720
2017-09-07T12:17:22.951Z,1376
2017-09-07T12:18:32.258Z,1264
2017-09-07T12:19:40.910Z,1388
2017-09-07T12:20:49.577Z,1604
2017-09-07T12:21:59.176Z,1720
2017-09-07T12:23:08.465Z,1820
2017-09-07T12:24:17.136Z,1856
2017-09-07T12:25:26.429Z,1672
2017-09-07T12:26:35.715Z,1380
2017-09-07T12:27:44.369Z,1120
2017-09-07T12:28:53.034Z,1032
2017-09-07T12:30:02.016Z,1132
2017-09-07T12:31:10.672Z,1344
2017-09-07T12:32:19.334Z,1484
2017-09-07T12:33:28.382Z,1604
2017-09-07T12:34:38.467Z,1680
2017-09-07T12:35:47.448Z,1776
2017-09-07T12:36:57.045Z,1900
2017-09-07T12:38:06.326Z,1860
2017-09-07T12:39:15.291Z,1712
2017-09-07T12:40:24.260Z,1420
2017-09-07T12:41:33.226Z,1256
2017-09-07T12:42:41.886Z,1352
2017-09-07T12:43:51.491Z,1444
2017-09-07T12:45:00.455Z,1520
2017-09-07T12:46:09.421Z,1644
2017-09-07T12:47:18.076Z,1860
2017-09-07T12:48:26.727Z,2044
2017-09-07T12:49:36.064Z,2100
2017-09-07T12:50:45.361Z,2256
2017-09-07T12:51:54.328Z,2192
2017-09-07T12:53:03.636Z,2076
2017-09-07T12:54:12.956Z,1980
2017-09-07T12:55:22.246Z,1808
2017-09-07T12:56:31.208Z,1868
2017-09-07T12:57:41.495Z,2004
2017-09-07T12:58:50.465Z,2020
2017-09-07T12:59:59.753Z,2080
2017-09-07T13:01:08.423Z,2068
2017-09-07T13:02:18.047Z,2088
2017-09-07T13:03:26.689Z,2104
2017-09-07T13:04:35.657Z,2048
2017-09-07T13:05:44.953Z,2084
2017-09-07T13:06:53.917Z,2036
2017-09-07T13:08:03.201Z,1980
2017-09-07T13:09:11.856Z,1928
2017-09-07T13:10:21.195Z,1856
2017-09-07T13:11:30.165Z,1720
2017-09-07T13:12:39.139Z,1776
2017-09-07T13:13:48.426Z,1812
2017-09-07T13:14:57.719Z,1520
2017-09-07T13:16:06.690Z,1188
2017-09-07T13:17:15.978Z,1084
2017-09-07T13:18:25.266Z,1332
2017-09-07T13:19:34.240Z,1732
2017-09-07T13:20:43.535Z,1760
2017-09-07T13:21:52.825Z,1560
2017-09-07T13:23:02.114Z,1364
2017-09-07T13:24:11.094Z,1392
2017-09-07T13:25:19.771Z,1504
2017-09-07T13:26:29.054Z,1696
2017-09-07T13:27:38.368Z,1800
2017-09-07T13:28:47.341Z,1824
2017-09-07T13:29:56.332Z,1720
2017-09-07T13:31:05.618Z,1660
2017-09-07T13:32:15.224Z,1760
2017-09-07T13:33:24.534Z,1696
2017-09-07T13:34:33.526Z,1704
2017-09-07T13:35:42.511Z,1816
2017-09-07T13:36:51.814Z,1828
2017-09-07T13:38:00.781Z,1764
2017-09-07T13:39:10.075Z,1640
2017-09-07T13:40:18.731Z,1632
2017-09-07T13:41:28.019Z,1700
2017-09-07T13:42:36.980Z,1820
2017-09-07T13:43:45.948Z,1908
2017-09-07T13:44:54.918Z,1896
2017-09-07T13:46:04.207Z,1804
2017-09-07T13:47:13.485Z,1732
2017-09-07T13:48:22.459Z,1492
2017-09-07T13:49:31.749Z,1220
2017-09-07T13:50:40.724Z,1024
2017-09-07T13:51:49.718Z,980
2017-09-07T13:52:58.687Z,984
2017-09-07T13:54:07.339Z,1088
2017-09-07T13:55:16.628Z,1200
2017-09-07T13:56:25.274Z,1276
2017-09-07T13:57:33.931Z,1188
2017-09-07T13:58:42.586Z,1024
2017-09-07T13:59:51.575Z,900
2017-09-07T14:01:00.557Z,812
2017-09-07T14:02:09.216Z,732
2017-09-07T14:03:17.879Z,672
2017-09-07T14:04:26.839Z,616
2017-09-07T14:05:35.820Z,584
2017-09-07T14:06:44.814Z,608
2017-09-07T14:07:53.478Z,692
2017-09-07T14:09:02.130Z,744
2017-09-07T14:10:11.444Z,752
2017-09-07T14:11:20.727Z,772
2017-09-07T14:12:29.394Z,808
2017-09-07T14:13:39.304Z,804
2017-09-07T14:14:48.290Z,840
2017-09-07T14:15:57.043Z,956
2017-09-07T14:17:06.976Z,996
2017-09-07T14:18:16.297Z,908
2017-09-07T14:19:24.950Z,792
2017-09-07T14:20:33.916Z,776
2017-09-07T14:21:43.203Z,852
2017-09-07T14:22:52.176Z,916
2017-09-07T14:24:01.508Z,864
2017-09-07T14:25:11.103Z,764
2017-09-07T14:26:20.083Z,644
2017-09-07T14:27:29.048Z,588
2017-09-07T14:28:38.342Z,588
2017-09-07T14:29:47.315Z,704
2017-09-07T14:30:56.595Z,888
2017-09-07T14:32:05.564Z,1000
2017-09-07T14:33:14.540Z,1116
2017-09-07T14:34:23.199Z,1236
2017-09-07T14:35:32.171Z,1320
2017-09-07T14:36:41.073Z,1260
2017-09-07T14:37:50.354Z,1184
2017-09-07T14:38:59.327Z,1092
2017-09-07T14:40:08.624Z,916
2017-09-07T14:41:17.599Z,684
2017-09-07T14:42:26.881Z,504
2017-09-07T14:43:36.177Z,392
2017-09-07T14:44:45.138Z,352
2017-09-07T14:45:54.117Z,364
2017-09-07T14:47:03.090Z,376
2017-09-07T14:48:12.073Z,372
2017-09-07T14:49:21.354Z,368
2017-09-07T14:50:30.030Z,296
2017-09-07T14:51:39.005Z,224
2017-09-07T14:52:48.921Z,200
2017-09-07T14:53:57.580Z,200
2017-09-07T14:55:07.179Z,204
2017-09-07T14:56:16.779Z,172
2017-09-07T14:57:26.064Z,124
2017-09-07T14:58:35.036Z,104
2017-09-07T14:59:44.034Z,104
2017-09-07T15:00:53.013Z,104
2017-09-07T15:02:01.700Z,88
2017-09-07T15:03:11.009Z,80
2017-09-07T15:04:20.624Z,80
2017-09-07T15:05:29.593Z,88
2017-09-07T15:06:38.583Z,108
2017-09-07T15:07:47.242Z,120
2017-09-07T15:08:55.913Z,128
2017-09-07T15:10:04.561Z,148
2017-09-07T15:11:14.075Z,164
2017-09-07T15:12:23.113Z,180
2017-09-07T15:13:32.085Z,192
2017-09-07T15:14:41.389Z,184
2017-09-07T15:15:50.669Z,188
2017-09-07T15:16:59.960Z,192
2017-09-07T15:18:08.942Z,200
2017-09-07T15:19:17.916Z,216
2017-09-07T15:20:26.891Z,208
2017-09-07T15:21:35.859Z,180
2017-09-07T15:22:44.830Z,168
2017-09-07T15:23:53.818Z,172
2017-09-07T15:25:03.102Z,180
2017-09-07T15:26:12.381Z,184
2017-09-07T15:27:21.363Z,180
2017-09-07T15:28:30.652Z,180
2017-09-07T15:29:39.305Z,192
2017-09-07T15:30:48.591Z,196
2017-09-07T15:31:57.247Z,188
2017-09-07T15:33:06.553Z,188
2017-09-07T15:34:15.207Z,204
2017-09-07T15:35:24.496Z,228
2017-09-07T15:36:33.473Z,248
2017-09-07T15:37:42.455Z,272
2017-09-07T15:38:52.369Z,296
2017-09-07T15:40:01.336Z,324
2017-09-07T15:41:10.308Z,344
2017-09-07T15:42:19.609Z,356
2017-09-07T15:43:28.583Z,344
2017-09-07T15:44:37.566Z,336
2017-09-07T15:45:46.536Z,344
2017-09-07T15:46:55.190Z,372
2017-09-07T15:48:03.839Z,400
2017-09-07T15:49:13.132Z,404
2017-09-07T15:50:22.105Z,384
2017-09-07T15:51:31.444Z,360
2017-09-07T15:52:40.748Z,356
2017-09-07T15:53:49.716Z,348
2017-09-07T15:54:58.430Z,328
2017-09-07T15:56:07.708Z,308
2017-09-07T15:57:16.987Z,288
2017-09-07T15:58:25.955Z,284
2017-09-07T15:59:34.913Z,292